createdAt,value
2019-06-20T00:00:52.604Z,21.20
2019-06-20T00:03:20.200Z,21.20
2019-06-20T00:05:47.754Z,21.30
2019-06-20T00:08:15.315Z,21.40
2019-06-20T00:10:42.890Z,21.20
2019-06-20T00:13:10.558Z,21.10
2019-06-20T00:15:38.365Z,21.30
2019-06-20T00:18:05.951Z,21.40
2019-06-20T00:20:33.508Z,21.40
2019-06-20T00:23:01.385Z,21.30
2019-06-20T00:25:29.635Z,21.40
2019-06-20T00:27:57.204Z,21.30
2019-06-20T00:30:24.872Z,21.30
2019-06-20T00:32:52.435Z,21.10
2019-06-20T00:35:20.317Z,21.00
2019-06-20T00:37:48.154Z,21.20
2019-06-20T00:40:16.016Z,21.10
2019-06-20T00:42:43.891Z,20.90
2019-06-20T00:45:11.949Z,20.70
2019-06-20T00:47:39.824Z,20.80
2019-06-20T00:50:07.381Z,20.90
2019-06-20T00:52:35.247Z,20.70
2019-06-20T00:55:04.752Z,20.70
2019-06-20T00:57:32.727Z,20.80
2019-06-20T01:00:00.284Z,20.80
2019-06-20T01:02:27.924Z,20.80
2019-06-20T01:04:55.908Z,21.00
2019-06-20T01:07:23.459Z,21.10
2019-06-20T01:09:51.336Z,21.00
2019-06-20T01:12:18.897Z,21.00
2019-06-20T01:14:46.555Z,21.00
2019-06-20T01:17:14.487Z,21.00
2019-06-20T01:19:42.147Z,21.00
2019-06-20T01:22:09.690Z,21.00
2019-06-20T01:24:37.516Z,21.00
2019-06-20T01:27:05.379Z,21.10
2019-06-20T01:29:33.250Z,21.10
2019-06-20T01:32:01.526Z,21.10
2019-06-20T01:34:29.495Z,21.10
2019-06-20T01:36:57.460Z,21.10
2019-06-20T01:39:25.029Z,21.00
2019-06-20T01:41:52.583Z,21.00
2019-06-20T01:44:20.454Z,20.90
2019-06-20T01:46:48.321Z,20.90
2019-06-20T01:49:15.890Z,20.80
2019-06-20T01:51:43.783Z,20.90
2019-06-20T01:54:11.632Z,20.80
2019-06-20T01:56:39.576Z,20.70
2019-06-20T01:59:07.447Z,20.50
2019-06-20T02:01:35.244Z,20.50
2019-06-20T02:04:02.810Z,20.70
2019-06-20T02:06:30.363Z,20.70
2019-06-20T02:08:58.308Z,20.70
2019-06-20T02:11:25.863Z,20.70
2019-06-20T02:14:06.439Z,20.70
2019-06-20T02:16:23.028Z,20.80
2019-06-20T02:18:50.596Z,20.60
2019-06-20T02:21:18.150Z,20.70
2019-06-20T02:23:45.712Z,20.60
2019-06-20T02:26:13.263Z,20.60
2019-06-20T02:28:40.833Z,20.60
2019-06-20T02:31:08.383Z,20.70
2019-06-20T02:33:36.256Z,20.70
2019-06-20T02:36:03.806Z,20.30
2019-06-20T02:38:31.375Z,20.20
2019-06-20T02:40:58.945Z,20.10
2019-06-20T02:43:26.842Z,20.10
2019-06-20T02:45:54.707Z,20.20
2019-06-20T02:48:22.355Z,20.20
2019-06-20T02:50:50.017Z,20.30
2019-06-20T02:53:17.574Z,20.50
2019-06-20T02:55:45.245Z,20.60
2019-06-20T02:58:12.875Z,20.50
2019-06-20T03:00:42.072Z,20.60
2019-06-20T03:03:09.614Z,20.40
2019-06-20T03:05:37.216Z,20.40
2019-06-20T03:08:04.773Z,20.30
2019-06-20T03:10:32.348Z,20.50
2019-06-20T03:12:59.899Z,20.50
2019-06-20T03:15:27.460Z,20.40
2019-06-20T03:17:55.295Z,20.40
2019-06-20T03:20:22.916Z,20.40
2019-06-20T03:22:50.523Z,20.40
2019-06-20T03:25:18.955Z,20.50
2019-06-20T03:27:46.508Z,20.30
2019-06-20T03:30:14.069Z,20.40
2019-06-20T03:32:41.630Z,20.10
2019-06-20T03:35:09.453Z,20.30
2019-06-20T03:37:37.308Z,20.30
2019-06-20T03:40:05.692Z,20.20
2019-06-20T03:42:33.248Z,20.30
2019-06-20T03:45:02.422Z,20.10
2019-06-20T03:47:30.624Z,19.80
2019-06-20T03:49:58.205Z,19.70
2019-06-20T03:52:26.048Z,19.60
2019-06-20T03:54:53.612Z,19.50
2019-06-20T03:57:21.177Z,19.50
2019-06-20T03:59:49.039Z,19.50
2019-06-20T04:02:17.024Z,19.50
2019-06-20T04:04:44.600Z,19.50
2019-06-20T04:07:12.533Z,19.50
2019-06-20T04:09:40.103Z,19.60
2019-06-20T04:12:07.956Z,19.60
2019-06-20T04:14:35.823Z,19.70
2019-06-20T04:17:03.507Z,19.50
2019-06-20T04:19:31.093Z,19.40
2019-06-20T04:21:58.636Z,19.60
2019-06-20T04:24:28.031Z,19.60
2019-06-20T04:26:55.480Z,19.60
2019-06-20T04:29:23.332Z,19.40
2019-06-20T04:31:51.141Z,19.20
2019-06-20T04:34:19.065Z,19.20
2019-06-20T04:36:48.156Z,19.30
2019-06-20T04:39:19.486Z,19.40
2019-06-20T04:41:45.638Z,19.40
2019-06-20T04:44:13.604Z,19.30
2019-06-20T04:46:43.111Z,19.50
2019-06-20T04:49:11.804Z,19.60
2019-06-20T04:51:39.877Z,19.50
2019-06-20T04:54:07.741Z,19.40
2019-06-20T04:56:35.577Z,19.50
2019-06-20T04:59:03.194Z,19.50
2019-06-20T05:01:31.127Z,19.50
2019-06-20T05:03:58.711Z,19.50
2019-06-20T05:06:26.276Z,19.40
2019-06-20T05:08:53.828Z,19.40
2019-06-20T05:11:21.677Z,19.50
2019-06-20T05:13:49.260Z,19.50
2019-06-20T05:16:16.830Z,19.50
2019-06-20T05:18:44.665Z,19.40
2019-06-20T05:21:12.307Z,19.40
2019-06-20T05:23:40.187Z,19.40
2019-06-20T05:26:08.060Z,19.40
2019-06-20T05:28:35.928Z,19.40
2019-06-20T05:31:03.492Z,19.30
2019-06-20T05:33:31.067Z,19.40
2019-06-20T05:35:58.627Z,19.40
2019-06-20T05:38:26.775Z,19.40
2019-06-20T05:40:54.381Z,19.50
2019-06-20T05:43:22.210Z,19.50
2019-06-20T05:45:49.775Z,19.50
2019-06-20T05:48:17.365Z,19.60
2019-06-20T05:50:45.201Z,19.60
2019-06-20T05:53:12.894Z,19.60
2019-06-20T05:55:40.475Z,19.60
2019-06-20T05:58:08.278Z,19.70
2019-06-20T06:00:36.124Z,19.80
2019-06-20T06:03:06.985Z,19.70
2019-06-20T06:05:33.049Z,19.70
2019-06-20T06:08:00.671Z,19.80
2019-06-20T06:10:28.537Z,19.70
2019-06-20T06:12:56.951Z,19.70
2019-06-20T06:15:24.898Z,19.90
2019-06-20T06:17:52.756Z,19.90
2019-06-20T06:20:20.406Z,19.90
2019-06-20T06:22:47.953Z,19.90
2019-06-20T06:25:15.528Z,19.80
2019-06-20T06:27:43.419Z,19.90
2019-06-20T06:30:11.043Z,19.90
2019-06-20T06:32:40.508Z,19.70
2019-06-20T06:35:09.259Z,19.70
2019-06-20T06:37:37.135Z,19.80
2019-06-20T06:40:06.010Z,19.90
2019-06-20T06:42:33.569Z,19.80
2019-06-20T06:45:01.404Z,19.60
2019-06-20T06:47:29.400Z,19.70
2019-06-20T06:49:57.100Z,19.80
2019-06-20T06:52:24.660Z,19.90
2019-06-20T06:54:52.512Z,19.70
2019-06-20T06:57:20.087Z,19.60
2019-06-20T06:59:48.134Z,19.60
2019-06-20T07:02:15.689Z,19.70
2019-06-20T07:04:43.540Z,19.80
2019-06-20T07:07:11.421Z,19.80
2019-06-20T07:09:39.288Z,19.90
2019-06-20T07:12:06.856Z,20.10
2019-06-20T07:14:34.720Z,20.20
2019-06-20T07:17:02.580Z,20.30
2019-06-20T07:19:30.453Z,20.40
2019-06-20T07:21:58.167Z,20.40
2019-06-20T07:24:25.980Z,20.60
2019-06-20T07:26:53.841Z,20.90
2019-06-20T07:29:21.395Z,21.10
2019-06-20T07:31:48.987Z,21.20
2019-06-20T07:34:16.836Z,21.20
2019-06-20T07:36:44.416Z,21.30
2019-06-20T07:39:12.279Z,21.30
2019-06-20T07:41:39.900Z,21.50
2019-06-20T07:44:07.462Z,21.30
2019-06-20T07:46:35.073Z,21.30
2019-06-20T07:49:02.729Z,21.40
2019-06-20T07:51:30.304Z,21.40
2019-06-20T07:53:58.139Z,21.50
2019-06-20T07:56:25.947Z,21.70
2019-06-20T07:58:53.516Z,22.10
2019-06-20T08:01:21.152Z,22.10
2019-06-20T08:03:48.801Z,22.30
2019-06-20T08:06:16.651Z,22.30
2019-06-20T08:08:44.508Z,22.60
2019-06-20T08:11:12.091Z,22.50
2019-06-20T08:13:39.892Z,22.60
2019-06-20T08:16:07.800Z,22.70
2019-06-20T08:18:35.360Z,23.10
2019-06-20T08:21:02.956Z,23.10
2019-06-20T08:23:31.009Z,23.00
2019-06-20T08:25:59.301Z,23.00
2019-06-20T08:28:28.367Z,22.80
2019-06-20T08:30:56.106Z,22.50
2019-06-20T08:33:24.842Z,22.20
2019-06-20T08:35:52.719Z,22.20
2019-06-20T08:38:20.275Z,22.40
2019-06-20T08:40:48.059Z,22.60
2019-06-20T08:43:15.642Z,22.90
2019-06-20T08:45:43.536Z,23.00
2019-06-20T08:48:11.407Z,22.90
2019-06-20T08:50:39.723Z,22.70
2019-06-20T08:53:07.294Z,22.40
2019-06-20T08:55:35.018Z,22.20
2019-06-20T08:58:03.479Z,22.20
2019-06-20T09:00:31.651Z,22.10
2019-06-20T09:03:00.453Z,22.20
2019-06-20T09:05:30.697Z,22.20
2019-06-20T09:08:00.390Z,22.30
2019-06-20T09:10:29.596Z,22.50
2019-06-20T09:12:57.170Z,22.70
2019-06-20T09:15:24.741Z,22.90
2019-06-20T09:17:54.096Z,23.20
2019-06-20T09:20:21.635Z,23.30
2019-06-20T09:22:49.559Z,23.40
2019-06-20T09:25:17.111Z,23.30
2019-06-20T09:27:44.691Z,23.20
2019-06-20T09:30:12.615Z,23.30
2019-06-20T09:32:40.484Z,23.70
2019-06-20T09:35:08.031Z,23.90
2019-06-20T09:37:35.907Z,24.20
2019-06-20T09:40:04.515Z,24.40
2019-06-20T09:42:32.339Z,24.40
2019-06-20T09:45:00.128Z,24.30
2019-06-20T09:47:27.693Z,24.00
2019-06-20T09:49:57.176Z,23.90
2019-06-20T09:52:24.868Z,23.80
2019-06-20T09:54:53.868Z,23.60
2019-06-20T09:57:21.561Z,23.60
2019-06-20T10:00:03.099Z,23.70
2019-06-20T10:02:18.680Z,23.60
2019-06-20T10:04:47.507Z,23.90
2019-06-20T10:07:15.558Z,24.10
2019-06-20T10:09:43.185Z,24.30
2019-06-20T10:12:10.758Z,24.20
2019-06-20T10:14:38.316Z,23.90
2019-06-20T10:17:06.217Z,23.70
2019-06-20T10:19:33.768Z,23.40
2019-06-20T10:22:01.538Z,23.40
2019-06-20T10:24:29.091Z,23.30
2019-06-20T10:26:58.014Z,23.40
2019-06-20T10:29:25.922Z,23.30
2019-06-20T10:31:53.492Z,23.30
2019-06-20T10:34:21.348Z,23.20
2019-06-20T10:36:50.097Z,23.10
2019-06-20T10:39:17.742Z,23.20
2019-06-20T10:41:46.805Z,23.40
2019-06-20T10:44:15.172Z,23.50
2019-06-20T10:46:42.827Z,23.60
2019-06-20T10:49:11.689Z,23.60
2019-06-20T10:51:42.328Z,23.90
2019-06-20T10:54:10.589Z,23.80
2019-06-20T10:56:38.163Z,23.80
2019-06-20T10:59:06.076Z,23.60
2019-06-20T11:01:33.641Z,23.60
2019-06-20T11:04:01.234Z,23.50
2019-06-20T11:06:28.791Z,23.50
2019-06-20T11:08:56.355Z,23.50
2019-06-20T11:11:23.924Z,23.60
2019-06-20T11:13:51.835Z,24.00
2019-06-20T11:16:19.704Z,24.30
2019-06-20T11:18:48.703Z,24.40
2019-06-20T11:21:16.784Z,24.40
2019-06-20T11:23:45.249Z,24.60
2019-06-20T11:26:13.020Z,24.60
2019-06-20T11:28:41.422Z,24.60
2019-06-20T11:31:09.478Z,24.60
2019-06-20T11:33:38.640Z,24.40
2019-06-20T11:36:06.643Z,24.40
2019-06-20T11:38:34.461Z,24.30
2019-06-20T11:41:02.018Z,24.30
2019-06-20T11:43:29.924Z,24.30
2019-06-20T11:45:57.809Z,24.20
2019-06-20T11:48:25.539Z,24.20
2019-06-20T11:50:53.201Z,24.20
2019-06-20T11:53:23.255Z,24.10
2019-06-20T11:55:50.961Z,24.00
2019-06-20T11:58:18.855Z,23.90
2019-06-20T12:01:02.486Z,23.80
2019-06-20T12:03:15.777Z,23.70
2019-06-20T12:05:43.343Z,23.60
2019-06-20T12:08:12.197Z,23.50
2019-06-20T12:10:40.883Z,23.40
2019-06-20T12:13:09.039Z,23.40
2019-06-20T12:15:38.094Z,23.30
2019-06-20T12:18:06.411Z,23.30
2019-06-20T12:20:34.271Z,23.30
2019-06-20T12:23:02.143Z,23.30
2019-06-20T12:25:30.017Z,23.30
2019-06-20T12:27:57.991Z,23.20
2019-06-20T12:30:25.663Z,23.10
2019-06-20T12:32:53.520Z,23.10
2019-06-20T12:35:21.308Z,23.00
2019-06-20T12:37:50.041Z,22.90
2019-06-20T12:40:18.240Z,22.90
2019-06-20T12:42:46.789Z,22.80
2019-06-20T12:45:14.836Z,22.80
2019-06-20T12:47:43.684Z,22.70
2019-06-20T12:50:11.497Z,22.70
2019-06-20T12:52:40.732Z,22.70
2019-06-20T12:55:08.356Z,22.70
2019-06-20T12:57:38.395Z,22.70
2019-06-20T13:00:06.594Z,22.70
2019-06-20T13:02:34.565Z,22.60
2019-06-20T13:05:02.348Z,22.50
2019-06-20T13:07:30.239Z,22.40
2019-06-20T13:09:58.063Z,22.40
2019-06-20T13:12:25.867Z,22.40
2019-06-20T13:14:53.441Z,22.30
2019-06-20T13:17:21.464Z,22.20
2019-06-20T13:19:49.324Z,22.20
2019-06-20T13:22:16.883Z,22.20
2019-06-20T13:24:45.190Z,22.10
2019-06-20T13:27:12.911Z,22.20
2019-06-20T13:29:40.823Z,22.30
2019-06-20T13:32:08.515Z,22.30
2019-06-20T13:34:36.097Z,22.30
2019-06-20T13:37:03.719Z,22.40
2019-06-20T13:39:31.319Z,22.30
2019-06-20T13:41:59.212Z,22.40
2019-06-20T13:44:26.783Z,22.40
2019-06-20T13:46:54.340Z,22.50
2019-06-20T13:49:21.931Z,22.70
2019-06-20T13:51:50.253Z,22.70
2019-06-20T13:54:18.259Z,22.90
2019-06-20T13:56:47.230Z,23.00
2019-06-20T13:59:15.510Z,23.20
2019-06-20T14:01:44.072Z,23.40
2019-06-20T14:04:12.668Z,23.50
2019-06-20T14:06:42.092Z,23.50
2019-06-20T14:09:09.955Z,23.70
2019-06-20T14:11:37.809Z,23.70
2019-06-20T14:14:05.405Z,23.60
2019-06-20T14:16:33.083Z,23.70
2019-06-20T14:19:01.675Z,23.90
2019-06-20T14:21:29.391Z,24.10
2019-06-20T14:23:56.998Z,24.20
2019-06-20T14:26:24.627Z,24.30
2019-06-20T14:28:52.462Z,24.50
2019-06-20T14:31:20.024Z,24.60
2019-06-20T14:33:48.500Z,24.70
2019-06-20T14:36:16.588Z,24.80
2019-06-20T14:38:45.660Z,24.80
2019-06-20T14:41:13.847Z,24.70
2019-06-20T14:43:42.773Z,24.60
2019-06-20T14:46:11.008Z,24.60
2019-06-20T14:48:38.954Z,24.80
2019-06-20T14:51:07.058Z,24.70
2019-06-20T14:53:34.928Z,24.70
2019-06-20T14:56:02.506Z,24.70
2019-06-20T14:58:30.103Z,24.80
2019-06-20T15:00:57.671Z,24.80
2019-06-20T15:03:25.590Z,24.80
2019-06-20T15:05:54.560Z,24.60
2019-06-20T15:08:22.348Z,24.50
2019-06-20T15:10:50.361Z,24.50
2019-06-20T15:13:18.555Z,24.60
2019-06-20T15:15:47.733Z,24.70
2019-06-20T15:18:15.456Z,24.70
2019-06-20T15:20:43.312Z,24.80
2019-06-20T15:23:10.941Z,24.80
2019-06-20T15:25:38.752Z,24.70
2019-06-20T15:28:06.300Z,24.70
2019-06-20T15:30:33.871Z,24.70
2019-06-20T15:33:09.653Z,24.70
2019-06-20T15:35:31.011Z,24.70
2019-06-20T15:37:58.575Z,24.60
2019-06-20T15:40:26.135Z,24.50
2019-06-20T15:42:55.340Z,24.50
2019-06-20T15:45:22.994Z,24.60
2019-06-20T15:47:51.070Z,24.60
2019-06-20T15:50:19.133Z,24.60
2019-06-20T15:52:46.711Z,24.60
2019-06-20T15:55:16.127Z,24.40
2019-06-20T15:57:44.082Z,24.40
2019-06-20T16:00:11.714Z,24.40
2019-06-20T16:02:39.872Z,24.50
2019-06-20T16:05:07.975Z,24.60
2019-06-20T16:07:35.524Z,24.50
2019-06-20T16:10:04.216Z,24.30
2019-06-20T16:12:31.764Z,24.20
2019-06-20T16:14:59.654Z,24.10
2019-06-20T16:17:27.556Z,24.00
2019-06-20T16:19:55.505Z,24.10
2019-06-20T16:22:23.108Z,24.20
2019-06-20T16:24:50.675Z,24.20
2019-06-20T16:27:18.241Z,24.30
2019-06-20T16:29:45.801Z,24.40
2019-06-20T16:32:13.349Z,24.40
2019-06-20T16:34:41.247Z,24.40
2019-06-20T16:37:10.345Z,24.40
2019-06-20T16:39:38.380Z,24.40
2019-06-20T16:42:05.933Z,24.40
2019-06-20T16:44:33.741Z,24.40
2019-06-20T16:47:01.609Z,24.50
2019-06-20T16:49:29.448Z,24.60
2019-06-20T16:51:57.070Z,24.50
2019-06-20T16:54:24.655Z,24.50
2019-06-20T16:56:52.203Z,24.40
2019-06-20T16:59:19.856Z,24.30
2019-06-20T17:01:47.641Z,24.10
2019-06-20T17:04:15.197Z,23.90
2019-06-20T17:06:42.752Z,23.80
2019-06-20T17:09:10.324Z,23.70
2019-06-20T17:11:38.200Z,23.70
2019-06-20T17:14:06.200Z,23.60
2019-06-20T17:16:33.774Z,23.40
2019-06-20T17:19:01.325Z,23.40
2019-06-20T17:21:29.193Z,23.30
2019-06-20T17:23:56.752Z,23.20
2019-06-20T17:26:24.619Z,23.20
2019-06-20T17:28:52.475Z,23.10
2019-06-20T17:31:20.292Z,23.10
2019-06-20T17:33:57.061Z,23.00
2019-06-20T17:36:18.749Z,22.90
2019-06-20T17:38:46.544Z,22.90
2019-06-20T17:41:14.374Z,22.90
2019-06-20T17:43:42.183Z,22.90
2019-06-20T17:46:09.784Z,22.90
2019-06-20T17:48:37.681Z,22.90
2019-06-20T17:51:05.259Z,22.90
2019-06-20T17:53:33.099Z,22.90
2019-06-20T17:56:00.910Z,22.80
2019-06-20T17:58:28.730Z,22.90
2019-06-20T18:00:56.326Z,22.80
2019-06-20T18:03:23.891Z,22.80
2019-06-20T18:05:51.708Z,22.70
2019-06-20T18:08:19.577Z,22.60
2019-06-20T18:10:47.447Z,22.50
2019-06-20T18:13:15.027Z,22.60
2019-06-20T18:15:42.867Z,22.60
2019-06-20T18:18:10.424Z,22.60
2019-06-20T18:20:38.294Z,22.60
2019-06-20T18:23:06.166Z,22.70
2019-06-20T18:25:33.767Z,22.50
2019-06-20T18:28:01.593Z,22.50
2019-06-20T18:30:39.980Z,22.40
2019-06-20T18:33:07.868Z,22.30
2019-06-20T18:35:35.430Z,22.40
2019-06-20T18:38:03.301Z,22.40
2019-06-20T18:40:31.159Z,22.40
2019-06-20T18:42:59.041Z,22.40
2019-06-20T18:45:26.627Z,22.40
2019-06-20T18:47:54.196Z,22.50
2019-06-20T18:50:22.861Z,22.40
2019-06-20T18:52:52.571Z,22.40
2019-06-20T18:55:20.271Z,22.40
2019-06-20T18:57:48.108Z,22.30
2019-06-20T19:00:30.787Z,22.30
2019-06-20T19:02:46.588Z,22.20
2019-06-20T19:05:14.142Z,22.30
2019-06-20T19:07:41.724Z,22.10
2019-06-20T19:10:09.568Z,22.00
2019-06-20T19:12:37.142Z,22.00
2019-06-20T19:15:06.623Z,22.00
2019-06-20T19:17:34.490Z,22.00
2019-06-20T19:20:02.389Z,21.90
2019-06-20T19:22:29.930Z,21.70
2019-06-20T19:24:57.511Z,21.70
2019-06-20T19:27:25.168Z,21.70
2019-06-20T19:29:53.061Z,21.80
2019-06-20T19:32:20.840Z,21.80
2019-06-20T19:35:00.956Z,21.80
2019-06-20T19:37:17.943Z,21.70
2019-06-20T19:39:45.809Z,21.60
2019-06-20T19:42:13.424Z,21.60
2019-06-20T19:44:41.071Z,21.60
2019-06-20T19:47:09.307Z,21.60
2019-06-20T19:49:36.867Z,21.40
2019-06-20T19:52:04.439Z,21.50
2019-06-20T19:54:32.003Z,21.50
2019-06-20T19:56:59.560Z,21.50
2019-06-20T19:59:27.119Z,21.50
2019-06-20T20:01:54.975Z,21.50
2019-06-20T20:04:22.831Z,21.50
2019-06-20T20:06:50.380Z,21.50
2019-06-20T20:09:18.286Z,21.50
2019-06-20T20:11:45.830Z,21.40
2019-06-20T20:14:13.402Z,21.50
2019-06-20T20:16:41.249Z,21.40
2019-06-20T20:19:08.838Z,21.30
2019-06-20T20:21:36.383Z,21.40
2019-06-20T20:24:04.032Z,21.40
2019-06-20T20:26:31.579Z,21.30
2019-06-20T20:28:59.468Z,21.30
2019-06-20T20:31:27.039Z,21.30
2019-06-20T20:33:54.888Z,21.20
2019-06-20T20:36:25.163Z,21.10
2019-06-20T20:38:51.957Z,21.10
2019-06-20T20:41:19.917Z,20.90
2019-06-20T20:43:47.464Z,20.80
2019-06-20T20:46:15.343Z,20.90
2019-06-20T20:48:43.245Z,20.90
2019-06-20T20:51:10.818Z,21.00
2019-06-20T20:53:38.364Z,20.90
2019-06-20T20:56:05.933Z,20.70
2019-06-20T20:58:33.483Z,20.70
2019-06-20T21:01:02.689Z,20.80
2019-06-20T21:03:30.237Z,20.80
2019-06-20T21:05:57.839Z,20.70
2019-06-20T21:08:25.480Z,20.80
2019-06-20T21:10:53.131Z,20.90
2019-06-20T21:13:20.697Z,20.70
2019-06-20T21:15:48.267Z,20.70
2019-06-20T21:18:15.803Z,20.60
2019-06-20T21:20:43.368Z,20.70
2019-06-20T21:23:10.924Z,20.80
2019-06-20T21:25:38.492Z,20.70
2019-06-20T21:28:06.039Z,20.70
2019-06-20T21:30:33.627Z,20.60
2019-06-20T21:33:01.269Z,20.60
2019-06-20T21:35:28.883Z,20.40
2019-06-20T21:37:56.437Z,20.50
2019-06-20T21:40:24.332Z,20.50
2019-06-20T21:42:51.888Z,20.40
2019-06-20T21:45:19.459Z,20.30
2019-06-20T21:47:47.412Z,20.30
2019-06-20T21:50:14.984Z,20.20
2019-06-20T21:52:42.836Z,20.30
2019-06-20T21:55:10.699Z,20.30
2019-06-20T21:57:38.580Z,20.30
2019-06-20T22:00:08.120Z,20.40
2019-06-20T22:02:36.204Z,20.50
2019-06-20T22:05:23.443Z,20.40
2019-06-20T22:07:51.041Z,20.40
2019-06-20T22:10:18.899Z,20.30
2019-06-20T22:12:46.483Z,20.40
2019-06-20T22:15:14.324Z,20.40
2019-06-20T22:17:41.873Z,20.30
2019-06-20T22:20:10.510Z,20.30
2019-06-20T22:22:38.339Z,20.30
2019-06-20T22:25:07.846Z,20.10
2019-06-20T22:27:35.419Z,20.10
2019-06-20T22:30:04.623Z,20.20
2019-06-20T22:32:32.180Z,20.20
2019-06-20T22:34:59.754Z,20.10
2019-06-20T22:37:27.383Z,20.10
2019-06-20T22:39:55.248Z,20.20
2019-06-20T22:42:22.807Z,20.20
2019-06-20T22:44:50.681Z,20.20
2019-06-20T22:47:18.232Z,20.00
2019-06-20T22:49:46.099Z,20.00
2019-06-20T22:52:13.971Z,20.10
2019-06-20T22:54:41.851Z,20.00
2019-06-20T22:57:09.554Z,20.10
2019-06-20T22:59:37.360Z,20.10
2019-06-20T23:02:05.229Z,20.10
2019-06-20T23:04:32.788Z,20.10
2019-06-20T23:07:00.657Z,20.10
2019-06-20T23:09:28.243Z,20.20
2019-06-20T23:11:56.094Z,20.10
2019-06-20T23:14:23.944Z,20.10
2019-06-20T23:16:51.512Z,20.10
2019-06-20T23:19:19.396Z,20.10
2019-06-20T23:21:47.243Z,20.10
2019-06-20T23:24:15.127Z,20.00
2019-06-20T23:26:42.808Z,20.00
2019-06-20T23:29:22.651Z,20.10
2019-06-20T23:31:51.307Z,20.00
2019-06-20T23:34:18.892Z,19.90
2019-06-20T23:36:46.691Z,19.90
2019-06-20T23:39:14.316Z,19.90
2019-06-20T23:41:42.160Z,20.00
2019-06-20T23:44:10.039Z,19.90
2019-06-20T23:46:37.663Z,19.90
2019-06-20T23:49:05.273Z,19.70
2019-06-20T23:51:34.476Z,19.60
2019-06-20T23:54:02.394Z,19.70
2019-06-20T23:56:30.280Z,19.70
2019-06-20T23:58:58.149Z,19.60
